sensor_id;sensor_type;location;lat;lon;timestamp;temperature;humidity
4584;DHT22;2304;47.606;12.186;2024-03-22T00:04:53;9.40;89.00
4584;DHT22;2304;47.606;12.186;2024-03-22T00:09:55;9.40;89.00
4584;DHT22;2304;47.606;12.186;2024-03-22T00:14:57;9.40;88.70
4584;DHT22;2304;47.606;12.186;2024-03-22T00:20:01;9.40;88.90
4584;DHT22;2304;47.606;12.186;2024-03-22T00:25:03;9.40;89.30
4584;DHT22;2304;47.606;12.186;2024-03-22T00:30:06;9.50;89.00
4584;DHT22;2304;47.606;12.186;2024-03-22T00:35:09;9.50;88.60
4584;DHT22;2304;47.606;12.186;2024-03-22T00:40:12;9.50;88.30
4584;DHT22;2304;47.606;12.186;2024-03-22T00:45:14;9.40;88.20
4584;DHT22;2304;47.606;12.186;2024-03-22T00:50:17;9.40;88.50
4584;DHT22;2304;47.606;12.186;2024-03-22T00:55:19;9.40;88.70
4584;DHT22;2304;47.606;12.186;2024-03-22T01:00:21;9.40;88.40
4584;DHT22;2304;47.606;12.186;2024-03-22T01:05:24;9.40;88.10
4584;DHT22;2304;47.606;12.186;2024-03-22T01:10:26;9.30;88.40
4584;DHT22;2304;47.606;12.186;2024-03-22T01:15:28;9.20;89.20
4584;DHT22;2304;47.606;12.186;2024-03-22T01:20:31;9.20;89.70
4584;DHT22;2304;47.606;12.186;2024-03-22T01:25:33;9.20;90.00
4584;DHT22;2304;47.606;12.186;2024-03-22T01:30:35;9.20;89.90
4584;DHT22;2304;47.606;12.186;2024-03-22T01:35:38;9.20;89.90
4584;DHT22;2304;47.606;12.186;2024-03-22T01:40:40;9.20;89.50
4584;DHT22;2304;47.606;12.186;2024-03-22T01:45:42;9.10;89.40
4584;DHT22;2304;47.606;12.186;2024-03-22T01:50:45;9.00;90.30
4584;DHT22;2304;47.606;12.186;2024-03-22T01:55:47;9.30;90.90
4584;DHT22;2304;47.606;12.186;2024-03-22T02:00:49;9.00;90.60
4584;DHT22;2304;47.606;12.186;2024-03-22T02:05:53;8.90;90.70
4584;DHT22;2304;47.606;12.186;2024-03-22T02:10:55;8.90;90.90
4584;DHT22;2304;47.606;12.186;2024-03-22T02:15:57;8.90;90.70
4584;DHT22;2304;47.606;12.186;2024-03-22T02:21:00;9.00;90.70
4584;DHT22;2304;47.606;12.186;2024-03-22T02:26:04;8.90;90.40
4584;DHT22;2304;47.606;12.186;2024-03-22T02:31:06;8.90;90.70
4584;DHT22;2304;47.606;12.186;2024-03-22T02:36:08;8.90;91.00
4584;DHT22;2304;47.606;12.186;2024-03-22T02:41:12;8.80;91.20
4584;DHT22;2304;47.606;12.186;2024-03-22T02:46:13;8.80;91.30
4584;DHT22;2304;47.606;12.186;2024-03-22T02:51:15;8.80;91.40
4584;DHT22;2304;47.606;12.186;2024-03-22T02:56:19;8.80;91.30
4584;DHT22;2304;47.606;12.186;2024-03-22T03:01:21;9.00;90.70
4584;DHT22;2304;47.606;12.186;2024-03-22T03:06:23;8.80;90.20
4584;DHT22;2304;47.606;12.186;2024-03-22T03:11:27;8.90;90.20
4584;DHT22;2304;47.606;12.186;2024-03-22T03:16:29;8.90;89.90
4584;DHT22;2304;47.606;12.186;2024-03-22T03:21:31;8.90;90.50
4584;DHT22;2304;47.606;12.186;2024-03-22T03:26:34;8.90;89.60
4584;DHT22;2304;47.606;12.186;2024-03-22T03:31:36;8.90;89.70
4584;DHT22;2304;47.606;12.186;2024-03-22T03:36:38;8.80;90.10
4584;DHT22;2304;47.606;12.186;2024-03-22T03:41:41;8.80;90.10
4584;DHT22;2304;47.606;12.186;2024-03-22T03:46:43;9.00;90.50
4584;DHT22;2304;47.606;12.186;2024-03-22T03:51:45;8.80;90.60
4584;DHT22;2304;47.606;12.186;2024-03-22T03:56:48;8.80;91.40
4584;DHT22;2304;47.606;12.186;2024-03-22T04:01:50;8.70;91.90
4584;DHT22;2304;47.606;12.186;2024-03-22T04:06:52;8.70;92.10
4584;DHT22;2304;47.606;12.186;2024-03-22T04:11:55;8.60;92.50
4584;DHT22;2304;47.606;12.186;2024-03-22T04:16:59;8.70;92.80
4584;DHT22;2304;47.606;12.186;2024-03-22T04:22:01;8.60;92.00
4584;DHT22;2304;47.606;12.186;2024-03-22T04:27:04;8.60;90.80
4584;DHT22;2304;47.606;12.186;2024-03-22T04:32:07;8.70;90.50
4584;DHT22;2304;47.606;12.186;2024-03-22T04:37:09;8.70;90.20
4584;DHT22;2304;47.606;12.186;2024-03-22T04:42:13;8.80;89.90
4584;DHT22;2304;47.606;12.186;2024-03-22T04:47:16;8.90;89.80
4584;DHT22;2304;47.606;12.186;2024-03-22T04:52:18;8.80;89.60
4584;DHT22;2304;47.606;12.186;2024-03-22T04:57:21;8.70;89.60
4584;DHT22;2304;47.606;12.186;2024-03-22T05:02:23;8.80;89.30
4584;DHT22;2304;47.606;12.186;2024-03-22T05:07:25;8.80;89.10
4584;DHT22;2304;47.606;12.186;2024-03-22T05:12:28;8.80;88.10
4584;DHT22;2304;47.606;12.186;2024-03-22T05:17:30;8.80;87.50
4584;DHT22;2304;47.606;12.186;2024-03-22T05:22:33;8.80;86.70
4584;DHT22;2304;47.606;12.186;2024-03-22T05:27:36;8.80;86.40
4584;DHT22;2304;47.606;12.186;2024-03-22T05:32:38;8.70;86.50
4584;DHT22;2304;47.606;12.186;2024-03-22T05:37:40;8.70;86.30
4584;DHT22;2304;47.606;12.186;2024-03-22T05:42:44;8.80;86.60
4584;DHT22;2304;47.606;12.186;2024-03-22T05:47:46;8.80;85.90
4584;DHT22;2304;47.606;12.186;2024-03-22T05:52:48;9.00;85.80
4584;DHT22;2304;47.606;12.186;2024-03-22T05:57:51;8.90;85.00
4584;DHT22;2304;47.606;12.186;2024-03-22T06:02:53;8.90;84.60
4584;DHT22;2304;47.606;12.186;2024-03-22T06:07:55;8.90;84.40
4584;DHT22;2304;47.606;12.186;2024-03-22T06:12:58;9.00;84.20
4584;DHT22;2304;47.606;12.186;2024-03-22T06:18:00;8.90;83.30
4584;DHT22;2304;47.606;12.186;2024-03-22T06:23:02;9.00;82.80
4584;DHT22;2304;47.606;12.186;2024-03-22T06:28:05;9.10;83.40
4584;DHT22;2304;47.606;12.186;2024-03-22T06:33:07;9.10;83.50
4584;DHT22;2304;47.606;12.186;2024-03-22T06:38:09;9.10;82.90
4584;DHT22;2304;47.606;12.186;2024-03-22T06:43:12;9.10;81.90
4584;DHT22;2304;47.606;12.186;2024-03-22T06:48:14;9.20;80.60
4584;DHT22;2304;47.606;12.186;2024-03-22T06:53:16;9.20;80.80
4584;DHT22;2304;47.606;12.186;2024-03-22T06:58:19;9.30;80.00
4584;DHT22;2304;47.606;12.186;2024-03-22T07:03:21;9.10;79.40
4584;DHT22;2304;47.606;12.186;2024-03-22T07:08:23;9.40;78.60
4584;DHT22;2304;47.606;12.186;2024-03-22T07:13:26;9.60;76.20
4584;DHT22;2304;47.606;12.186;2024-03-22T07:18:29;9.70;74.60
4584;DHT22;2304;47.606;12.186;2024-03-22T07:23:31;9.90;74.40
4584;DHT22;2304;47.606;12.186;2024-03-22T07:28:34;10.00;72.20
4584;DHT22;2304;47.606;12.186;2024-03-22T07:33:36;10.10;72.10
4584;DHT22;2304;47.606;12.186;2024-03-22T07:38:39;10.10;70.60
4584;DHT22;2304;47.606;12.186;2024-03-22T07:43:42;10.10;70.10
4584;DHT22;2304;47.606;12.186;2024-03-22T07:48:44;10.20;69.80
4584;DHT22;2304;47.606;12.186;2024-03-22T07:53:46;10.40;70.10
4584;DHT22;2304;47.606;12.186;2024-03-22T07:58:50;10.50;69.70
4584;DHT22;2304;47.606;12.186;2024-03-22T08:03:52;10.50;68.90
4584;DHT22;2304;47.606;12.186;2024-03-22T08:08:54;10.70;68.70
4584;DHT22;2304;47.606;12.186;2024-03-22T08:13:57;11.00;68.10
4584;DHT22;2304;47.606;12.186;2024-03-22T08:19:02;11.20;67.80
4584;DHT22;2304;47.606;12.186;2024-03-22T08:24:05;11.30;67.00
4584;DHT22;2304;47.606;12.186;2024-03-22T08:29:08;11.50;65.70
4584;DHT22;2304;47.606;12.186;2024-03-22T08:34:10;11.70;64.80
4584;DHT22;2304;47.606;12.186;2024-03-22T08:39:12;11.80;64.80
4584;DHT22;2304;47.606;12.186;2024-03-22T08:44:17;11.90;64.80
4584;DHT22;2304;47.606;12.186;2024-03-22T08:49:21;11.90;64.30
4584;DHT22;2304;47.606;12.186;2024-03-22T08:54:24;12.20;64.20
4584;DHT22;2304;47.606;12.186;2024-03-22T08:59:27;12.40;62.80
4584;DHT22;2304;47.606;12.186;2024-03-22T09:04:29;12.70;62.20
4584;DHT22;2304;47.606;12.186;2024-03-22T09:09:31;12.60;62.70
4584;DHT22;2304;47.606;12.186;2024-03-22T09:14:35;12.70;61.60
4584;DHT22;2304;47.606;12.186;2024-03-22T09:19:36;12.70;62.10
4584;DHT22;2304;47.606;12.186;2024-03-22T09:24:38;12.80;61.40
4584;DHT22;2304;47.606;12.186;2024-03-22T09:29:42;12.90;61.00
4584;DHT22;2304;47.606;12.186;2024-03-22T09:34:44;12.80;60.90
4584;DHT22;2304;47.606;12.186;2024-03-22T09:39:46;13.20;60.40
4584;DHT22;2304;47.606;12.186;2024-03-22T09:44:50;13.60;59.80
4584;DHT22;2304;47.606;12.186;2024-03-22T09:49:52;13.80;58.40
4584;DHT22;2304;47.606;12.186;2024-03-22T09:54:56;14.00;58.30
4584;DHT22;2304;47.606;12.186;2024-03-22T09:59:59;14.20;57.30
4584;DHT22;2304;47.606;12.186;2024-03-22T10:05:01;14.60;57.20
4584;DHT22;2304;47.606;12.186;2024-03-22T10:10:04;14.80;57.50
4584;DHT22;2304;47.606;12.186;2024-03-22T10:15:09;15.20;57.00
4584;DHT22;2304;47.606;12.186;2024-03-22T10:20:13;15.50;57.40
4584;DHT22;2304;47.606;12.186;2024-03-22T10:25:15;15.70;57.30
4584;DHT22;2304;47.606;12.186;2024-03-22T10:30:18;15.90;58.40
4584;DHT22;2304;47.606;12.186;2024-03-22T10:35:20;16.50;58.00
4584;DHT22;2304;47.606;12.186;2024-03-22T10:40:23;16.60;55.90
4584;DHT22;2304;47.606;12.186;2024-03-22T10:45:26;16.60;56.10
4584;DHT22;2304;47.606;12.186;2024-03-22T10:50:29;17.10;55.00
4584;DHT22;2304;47.606;12.186;2024-03-22T10:55:34;17.50;55.20
4584;DHT22;2304;47.606;12.186;2024-03-22T11:00:42;17.70;53.30
4584;DHT22;2304;47.606;12.186;2024-03-22T11:05:45;18.00;53.70
4584;DHT22;2304;47.606;12.186;2024-03-22T11:10:47;18.10;52.20
4584;DHT22;2304;47.606;12.186;2024-03-22T11:15:50;18.40;53.40
4584;DHT22;2304;47.606;12.186;2024-03-22T11:20:52;18.80;52.80
4584;DHT22;2304;47.606;12.186;2024-03-22T11:25:56;19.00;51.00
4584;DHT22;2304;47.606;12.186;2024-03-22T11:30:59;19.00;50.60
4584;DHT22;2304;47.606;12.186;2024-03-22T11:36:02;19.00;51.00
4584;DHT22;2304;47.606;12.186;2024-03-22T11:41:04;19.40;50.00
4584;DHT22;2304;47.606;12.186;2024-03-22T11:46:08;19.20;49.30
4584;DHT22;2304;47.606;12.186;2024-03-22T11:51:10;19.40;49.50
4584;DHT22;2304;47.606;12.186;2024-03-22T11:56:12;19.40;49.70
4584;DHT22;2304;47.606;12.186;2024-03-22T12:01:16;19.50;48.40
4584;DHT22;2304;47.606;12.186;2024-03-22T12:06:21;19.60;47.90
4584;DHT22;2304;47.606;12.186;2024-03-22T12:11:23;19.60;47.60
4584;DHT22;2304;47.606;12.186;2024-03-22T12:16:26;19.70;47.70
4584;DHT22;2304;47.606;12.186;2024-03-22T12:21:28;20.00;47.60
4584;DHT22;2304;47.606;12.186;2024-03-22T12:26:30;20.00;46.00
4584;DHT22;2304;47.606;12.186;2024-03-22T12:31:34;20.10;47.10
4584;DHT22;2304;47.606;12.186;2024-03-22T12:36:36;20.20;47.00
4584;DHT22;2304;47.606;12.186;2024-03-22T12:41:38;20.30;44.50
4584;DHT22;2304;47.606;12.186;2024-03-22T12:46:41;20.40;42.90
4584;DHT22;2304;47.606;12.186;2024-03-22T12:51:45;20.30;39.40
4584;DHT22;2304;47.606;12.186;2024-03-22T12:56:47;20.20;41.00
4584;DHT22;2304;47.606;12.186;2024-03-22T13:01:51;20.20;43.20
4584;DHT22;2304;47.606;12.186;2024-03-22T13:06:54;20.00;41.50
4584;DHT22;2304;47.606;12.186;2024-03-22T13:11:56;20.00;43.70
4584;DHT22;2304;47.606;12.186;2024-03-22T13:16:59;19.80;42.30
4584;DHT22;2304;47.606;12.186;2024-03-22T13:22:01;20.00;42.60
4584;DHT22;2304;47.606;12.186;2024-03-22T13:27:03;20.10;42.80
4584;DHT22;2304;47.606;12.186;2024-03-22T13:32:07;20.40;41.90
4584;DHT22;2304;47.606;12.186;2024-03-22T13:37:08;20.50;41.60
4584;DHT22;2304;47.606;12.186;2024-03-22T13:42:10;20.60;41.70
4584;DHT22;2304;47.606;12.186;2024-03-22T13:47:14;20.50;40.70
4584;DHT22;2304;47.606;12.186;2024-03-22T13:52:16;20.50;41.90
4584;DHT22;2304;47.606;12.186;2024-03-22T13:57:18;20.30;40.20
4584;DHT22;2304;47.606;12.186;2024-03-22T14:02:22;20.00;39.50
4584;DHT22;2304;47.606;12.186;2024-03-22T14:07:24;19.90;39.70
4584;DHT22;2304;47.606;12.186;2024-03-22T14:12:25;19.90;40.20
4584;DHT22;2304;47.606;12.186;2024-03-22T14:17:28;19.90;39.90
4584;DHT22;2304;47.606;12.186;2024-03-22T14:22:30;19.90;40.30
4584;DHT22;2304;47.606;12.186;2024-03-22T14:27:32;19.70;39.50
4584;DHT22;2304;47.606;12.186;2024-03-22T14:32:35;19.90;41.10
4584;DHT22;2304;47.606;12.186;2024-03-22T14:37:37;20.00;40.00
4584;DHT22;2304;47.606;12.186;2024-03-22T14:42:39;20.00;38.40
4584;DHT22;2304;47.606;12.186;2024-03-22T14:47:42;19.90;38.80
4584;DHT22;2304;47.606;12.186;2024-03-22T14:52:44;19.80;39.10
4584;DHT22;2304;47.606;12.186;2024-03-22T14:57:46;19.80;38.40
4584;DHT22;2304;47.606;12.186;2024-03-22T15:02:50;19.70;39.10
4584;DHT22;2304;47.606;12.186;2024-03-22T15:07:52;19.70;40.00
4584;DHT22;2304;47.606;12.186;2024-03-22T15:12:54;19.60;39.10
4584;DHT22;2304;47.606;12.186;2024-03-22T15:17:57;19.50;38.90
4584;DHT22;2304;47.606;12.186;2024-03-22T15:22:59;19.40;40.40
4584;DHT22;2304;47.606;12.186;2024-03-22T15:28:01;19.40;38.60
4584;DHT22;2304;47.606;12.186;2024-03-22T15:33:04;19.30;39.60
4584;DHT22;2304;47.606;12.186;2024-03-22T15:38:06;19.40;39.60
4584;DHT22;2304;47.606;12.186;2024-03-22T15:43:08;19.30;39.60
4584;DHT22;2304;47.606;12.186;2024-03-22T15:48:12;19.20;39.70
4584;DHT22;2304;47.606;12.186;2024-03-22T15:53:20;19.10;40.40
4584;DHT22;2304;47.606;12.186;2024-03-22T15:58:22;19.00;41.20
4584;DHT22;2304;47.606;12.186;2024-03-22T16:03:25;19.00;41.40
4584;DHT22;2304;47.606;12.186;2024-03-22T16:08:27;18.90;41.40
4584;DHT22;2304;47.606;12.186;2024-03-22T16:13:29;18.80;40.00
4584;DHT22;2304;47.606;12.186;2024-03-22T16:18:32;18.70;40.70
4584;DHT22;2304;47.606;12.186;2024-03-22T16:23:34;18.70;42.20
4584;DHT22;2304;47.606;12.186;2024-03-22T16:28:36;18.50;43.40
4584;DHT22;2304;47.606;12.186;2024-03-22T16:33:39;18.50;44.40
4584;DHT22;2304;47.606;12.186;2024-03-22T16:38:41;18.40;44.70
4584;DHT22;2304;47.606;12.186;2024-03-22T16:43:43;18.30;45.90
4584;DHT22;2304;47.606;12.186;2024-03-22T16:48:46;18.10;47.30
4584;DHT22;2304;47.606;12.186;2024-03-22T16:53:48;18.10;49.10
4584;DHT22;2304;47.606;12.186;2024-03-22T16:58:50;18.00;48.30
4584;DHT22;2304;47.606;12.186;2024-03-22T17:03:53;17.90;48.00
4584;DHT22;2304;47.606;12.186;2024-03-22T17:08:55;17.90;48.50
4584;DHT22;2304;47.606;12.186;2024-03-22T17:13:57;17.80;49.40
4584;DHT22;2304;47.606;12.186;2024-03-22T17:19:00;17.60;50.30
4584;DHT22;2304;47.606;12.186;2024-03-22T17:24:04;17.30;50.90
4584;DHT22;2304;47.606;12.186;2024-03-22T17:29:06;17.30;51.00
4584;DHT22;2304;47.606;12.186;2024-03-22T17:34:12;17.20;51.60
4584;DHT22;2304;47.606;12.186;2024-03-22T17:39:13;17.10;51.60
4584;DHT22;2304;47.606;12.186;2024-03-22T17:44:15;16.90;52.10
4584;DHT22;2304;47.606;12.186;2024-03-22T17:49:19;16.80;52.00
4584;DHT22;2304;47.606;12.186;2024-03-22T17:54:20;16.70;52.30
4584;DHT22;2304;47.606;12.186;2024-03-22T17:59:24;16.70;52.50
4584;DHT22;2304;47.606;12.186;2024-03-22T18:04:28;16.50;53.50
4584;DHT22;2304;47.606;12.186;2024-03-22T18:09:29;16.40;53.50
4584;DHT22;2304;47.606;12.186;2024-03-22T18:14:32;16.40;53.30
4584;DHT22;2304;47.606;12.186;2024-03-22T18:19:35;16.20;53.40
4584;DHT22;2304;47.606;12.186;2024-03-22T18:24:37;16.20;54.10
4584;DHT22;2304;47.606;12.186;2024-03-22T18:29:39;16.10;55.00
4584;DHT22;2304;47.606;12.186;2024-03-22T18:34:42;15.90;55.60
4584;DHT22;2304;47.606;12.186;2024-03-22T18:39:44;15.80;55.10
4584;DHT22;2304;47.606;12.186;2024-03-22T18:44:46;15.60;54.90
4584;DHT22;2304;47.606;12.186;2024-03-22T18:49:49;15.50;56.00
4584;DHT22;2304;47.606;12.186;2024-03-22T18:54:55;15.40;56.20
4584;DHT22;2304;47.606;12.186;2024-03-22T18:59:59;15.40;54.10
4584;DHT22;2304;47.606;12.186;2024-03-22T19:05:02;15.30;53.40
4584;DHT22;2304;47.606;12.186;2024-03-22T19:10:04;15.20;52.50
4584;DHT22;2304;47.606;12.186;2024-03-22T19:15:08;15.10;52.90
4584;DHT22;2304;47.606;12.186;2024-03-22T19:20:12;15.10;53.10
4584;DHT22;2304;47.606;12.186;2024-03-22T19:25:14;15.00;54.00
4584;DHT22;2304;47.606;12.186;2024-03-22T19:30:16;14.80;54.30
4584;DHT22;2304;47.606;12.186;2024-03-22T19:35:23;14.70;54.40
4584;DHT22;2304;47.606;12.186;2024-03-22T19:40:25;14.70;54.00
4584;DHT22;2304;47.606;12.186;2024-03-22T19:45:27;14.80;54.10
4584;DHT22;2304;47.606;12.186;2024-03-22T19:50:30;14.60;54.50
4584;DHT22;2304;47.606;12.186;2024-03-22T19:55:32;14.50;55.20
4584;DHT22;2304;47.606;12.186;2024-03-22T20:00:34;14.50;56.00
4584;DHT22;2304;47.606;12.186;2024-03-22T20:05:37;14.40;56.00
4584;DHT22;2304;47.606;12.186;2024-03-22T20:10:39;14.40;56.30
4584;DHT22;2304;47.606;12.186;2024-03-22T20:15:40;14.30;56.60
4584;DHT22;2304;47.606;12.186;2024-03-22T20:20:45;14.30;56.70
4584;DHT22;2304;47.606;12.186;2024-03-22T20:25:47;14.20;56.30
4584;DHT22;2304;47.606;12.186;2024-03-22T20:30:49;14.10;56.10
4584;DHT22;2304;47.606;12.186;2024-03-22T20:35:53;14.00;57.00
